createdAt,value
2023-04-16T00:00:29.661Z,31.5920
2023-04-16T00:01:33.561Z,31.5449
2023-04-16T00:02:37.624Z,31.4316
2023-04-16T00:03:41.815Z,31.4223
2023-04-16T00:04:45.863Z,31.3604
2023-04-16T00:05:49.746Z,31.3348
2023-04-16T00:06:53.655Z,31.2594
2023-04-16T00:07:57.530Z,31.4593
2023-04-16T00:09:01.414Z,31.4459
2023-04-16T00:10:05.333Z,31.2516
2023-04-16T00:11:09.193Z,31.3228
2023-04-16T00:12:13.083Z,31.4369
2023-04-16T00:13:16.985Z,31.3957
2023-04-16T00:14:20.877Z,31.3468
2023-04-16T00:15:24.784Z,31.5292
2023-04-16T00:16:28.995Z,31.5379
2023-04-16T00:17:32.963Z,31.4658
2023-04-16T00:18:36.841Z,31.6302
2023-04-16T00:19:40.742Z,31.5579
2023-04-16T00:20:44.615Z,31.5958
2023-04-16T00:21:48.754Z,31.5735
2023-04-16T00:22:52.652Z,31.4567
2023-04-16T00:23:56.745Z,31.4858
2023-04-16T00:25:00.646Z,31.4226
2023-04-16T00:26:04.555Z,31.5386
2023-04-16T00:27:08.440Z,31.5681
2023-04-16T00:28:12.350Z,31.6565
2023-04-16T00:29:16.236Z,31.5583
2023-04-16T00:30:20.132Z,31.6166
2023-04-16T00:31:24.350Z,31.5681
2023-04-16T00:32:28.379Z,31.5873
2023-04-16T00:33:32.287Z,31.4893
2023-04-16T00:34:32.496Z,31.4147
2023-04-16T00:35:36.392Z,31.4822
2023-04-16T00:36:40.329Z,31.3595
2023-04-16T00:37:44.206Z,31.4630
2023-04-16T00:38:48.320Z,31.4810
2023-04-16T00:39:52.231Z,31.4051
2023-04-16T00:40:56.100Z,31.4170
2023-04-16T00:41:59.995Z,31.4981
2023-04-16T00:43:03.875Z,31.4920
2023-04-16T00:44:07.791Z,31.5223
2023-04-16T00:45:11.676Z,31.4993
2023-04-16T00:46:15.610Z,31.4555
2023-04-16T00:47:19.484Z,31.4942
2023-04-16T00:48:23.378Z,31.5177
2023-04-16T00:49:27.278Z,31.5008
2023-04-16T00:50:31.160Z,31.5701
2023-04-16T00:51:35.060Z,31.5417
2023-04-16T00:52:38.936Z,31.5288
2023-04-16T00:53:42.838Z,31.4514
2023-04-16T00:54:46.720Z,31.4741
2023-04-16T00:55:50.634Z,31.4965
2023-04-16T00:56:54.503Z,31.3274
2023-04-16T00:57:58.410Z,31.4326
2023-04-16T00:59:02.328Z,31.4922
2023-04-16T01:00:06.227Z,31.3918
2023-04-16T01:01:10.138Z,31.3140
2023-04-16T01:02:14.108Z,31.3717
2023-04-16T01:03:18.038Z,31.4086
2023-04-16T01:04:22.020Z,31.4935
2023-04-16T01:05:25.898Z,31.4856
2023-04-16T01:06:29.804Z,31.4653
2023-04-16T01:07:33.690Z,31.5533
2023-04-16T01:08:37.597Z,31.5497
2023-04-16T01:09:41.520Z,31.5596
2023-04-16T01:10:45.410Z,31.5153
2023-04-16T01:11:49.310Z,31.5995
2023-04-16T01:12:53.202Z,31.5655
2023-04-16T01:13:57.105Z,31.5308
2023-04-16T01:15:00.995Z,31.5737
2023-04-16T01:16:04.960Z,31.5683
2023-04-16T01:17:09.039Z,31.5902
2023-04-16T01:18:12.967Z,31.5805
2023-04-16T01:19:16.814Z,31.5793
2023-04-16T01:20:20.713Z,31.6372
2023-04-16T01:21:24.588Z,31.5628
2023-04-16T01:22:28.507Z,31.6773
2023-04-16T01:23:32.371Z,31.7235
2023-04-16T01:24:36.287Z,31.6929
2023-04-16T01:25:40.157Z,31.4789
2023-04-16T01:26:44.058Z,31.6177
2023-04-16T01:27:47.936Z,31.5736
2023-04-16T01:28:52.157Z,31.5162
2023-04-16T01:29:56.052Z,31.5904
2023-04-16T01:30:59.946Z,31.7763
2023-04-16T01:32:04.139Z,31.7765
2023-04-16T01:33:08.031Z,31.5637
2023-04-16T01:34:11.937Z,31.5264
2023-04-16T01:35:15.821Z,31.6323
2023-04-16T01:36:19.731Z,31.8433
2023-04-16T01:37:23.617Z,31.6990
2023-04-16T01:38:27.515Z,31.7929
2023-04-16T01:39:31.602Z,31.8450
2023-04-16T01:40:35.511Z,31.8849
2023-04-16T01:41:39.406Z,31.8986
2023-04-16T01:42:43.309Z,31.9055
2023-04-16T01:43:47.423Z,31.7645
2023-04-16T01:44:51.308Z,31.8414
2023-04-16T01:45:55.207Z,31.8168
2023-04-16T01:46:59.140Z,31.8053
2023-04-16T01:48:03.084Z,31.6596
2023-04-16T01:49:07.047Z,31.7243
2023-04-16T01:50:11.012Z,31.7852
2023-04-16T01:51:14.913Z,31.8394
2023-04-16T01:52:18.795Z,31.8546
2023-04-16T01:53:22.692Z,31.8935
2023-04-16T01:54:26.805Z,31.7868
2023-04-16T01:55:30.710Z,31.8900
2023-04-16T01:56:34.588Z,31.8445
2023-04-16T01:57:38.509Z,31.7745
2023-04-16T01:58:42.379Z,31.8263
2023-04-16T01:59:46.277Z,31.7385
2023-04-16T02:00:50.167Z,31.8234
2023-04-16T02:01:54.099Z,31.8476
2023-04-16T02:02:58.069Z,31.9024
2023-04-16T02:04:02.339Z,31.9203
2023-04-16T02:05:07.097Z,31.8122
2023-04-16T02:06:07.810Z,31.8319
2023-04-16T02:07:11.730Z,31.8322
2023-04-16T02:08:15.605Z,31.8944
2023-04-16T02:09:19.718Z,31.8196
2023-04-16T02:10:31.156Z,31.8537
2023-04-16T02:11:24.457Z,31.7407
2023-04-16T02:12:28.363Z,31.7287
2023-04-16T02:13:32.281Z,31.6985
2023-04-16T02:14:36.475Z,31.7618
2023-04-16T02:15:40.347Z,31.5730
2023-04-16T02:16:40.877Z,31.6629
2023-04-16T02:17:44.854Z,31.7314
2023-04-16T02:18:48.718Z,31.7634
2023-04-16T02:19:52.646Z,31.7718
2023-04-16T02:20:56.524Z,31.8582
2023-04-16T02:22:00.428Z,31.8066
2023-04-16T02:23:04.289Z,31.7898
2023-04-16T02:24:08.203Z,31.8951
2023-04-16T02:25:12.076Z,31.8042
2023-04-16T02:26:15.980Z,31.8211
2023-04-16T02:27:19.884Z,31.7500
2023-04-16T02:28:23.758Z,31.7879
2023-04-16T02:29:27.817Z,31.8269
2023-04-16T02:30:31.719Z,31.8937
2023-04-16T02:31:35.667Z,31.5322
2023-04-16T02:32:39.574Z,31.6067
2023-04-16T02:33:43.478Z,31.7959
2023-04-16T02:34:47.381Z,31.8096
2023-04-16T02:35:51.271Z,31.8261
2023-04-16T02:36:55.171Z,31.7765
2023-04-16T02:37:59.080Z,31.8439
2023-04-16T02:39:02.949Z,31.9387
2023-04-16T02:40:06.832Z,31.8148
2023-04-16T02:41:10.736Z,31.7751
2023-04-16T02:42:14.626Z,31.7503
2023-04-16T02:43:18.524Z,31.6956
2023-04-16T02:44:22.652Z,31.7569
2023-04-16T02:45:26.538Z,31.7497
2023-04-16T02:46:30.912Z,31.8013
2023-04-16T02:47:34.823Z,31.7062
2023-04-16T02:48:38.731Z,31.7354
2023-04-16T02:49:42.622Z,31.7518
2023-04-16T02:50:46.509Z,31.7039
2023-04-16T02:51:50.615Z,31.7543
2023-04-16T02:52:54.509Z,31.9443
2023-04-16T02:53:58.394Z,31.8896
2023-04-16T02:55:02.307Z,31.8240
2023-04-16T02:56:06.210Z,31.8038
2023-04-16T02:57:10.340Z,31.8177
2023-04-16T02:58:14.235Z,31.8446
2023-04-16T02:59:18.421Z,31.7608
2023-04-16T03:00:22.334Z,31.8392
2023-04-16T03:01:26.277Z,31.8025
2023-04-16T03:02:30.263Z,31.7915
2023-04-16T03:03:34.143Z,31.7570
2023-04-16T03:04:38.458Z,31.7494
2023-04-16T03:05:42.493Z,31.7466
2023-04-16T03:06:46.381Z,31.8320
2023-04-16T03:07:50.268Z,31.7973
2023-04-16T03:08:54.151Z,31.8147
2023-04-16T03:09:58.054Z,31.7769
2023-04-16T03:11:01.934Z,31.7989
2023-04-16T03:12:06.035Z,31.8319
2023-04-16T03:13:09.930Z,31.9380
2023-04-16T03:14:14.030Z,31.9110
2023-04-16T03:15:17.969Z,32.0145
2023-04-16T03:16:22.104Z,32.0993
2023-04-16T03:17:26.028Z,32.1311
2023-04-16T03:18:29.899Z,32.1499
2023-04-16T03:19:34.004Z,32.1822
2023-04-16T03:20:37.923Z,32.2163
2023-04-16T03:21:41.837Z,32.2241
2023-04-16T03:22:45.749Z,32.2151
2023-04-16T03:23:49.647Z,32.1988
2023-04-16T03:24:53.558Z,32.2261
2023-04-16T03:25:57.486Z,32.2283
2023-04-16T03:27:01.609Z,32.2326
2023-04-16T03:28:05.513Z,32.2394
2023-04-16T03:29:05.860Z,32.2318
2023-04-16T03:30:09.758Z,32.2287
2023-04-16T03:31:13.931Z,32.2052
2023-04-16T03:32:17.858Z,32.2117
2023-04-16T03:33:21.736Z,32.2133
2023-04-16T03:34:25.626Z,32.1932
2023-04-16T03:35:29.532Z,32.2040
2023-04-16T03:36:33.674Z,32.2198
2023-04-16T03:37:37.573Z,32.2178
2023-04-16T03:38:41.484Z,32.2050
2023-04-16T03:39:45.623Z,32.1943
2023-04-16T03:40:49.486Z,32.1862
2023-04-16T03:41:53.414Z,32.1814
2023-04-16T03:42:57.300Z,32.1750
2023-04-16T03:44:01.405Z,32.1720
2023-04-16T03:45:05.316Z,32.1486
2023-04-16T03:46:09.243Z,32.1501
2023-04-16T03:47:13.367Z,32.1283
2023-04-16T03:48:17.267Z,32.1133
2023-04-16T03:49:21.358Z,32.1093
2023-04-16T03:50:25.296Z,32.0956
2023-04-16T03:51:29.149Z,32.1065
2023-04-16T03:52:33.051Z,32.0990
2023-04-16T03:53:36.921Z,32.1047
2023-04-16T03:54:40.824Z,32.1030
2023-04-16T03:55:44.692Z,32.1050
2023-04-16T03:56:48.892Z,32.0867
2023-04-16T03:57:52.811Z,32.0955
2023-04-16T03:58:56.699Z,32.0864
2023-04-16T04:00:00.569Z,32.0801
2023-04-16T04:01:04.480Z,32.0799
2023-04-16T04:02:08.461Z,32.0782
2023-04-16T04:03:12.654Z,32.0828
2023-04-16T04:04:16.911Z,32.0837
2023-04-16T04:05:20.821Z,32.0700
2023-04-16T04:06:24.744Z,32.0698
2023-04-16T04:07:28.632Z,32.0673
2023-04-16T04:08:32.532Z,32.0632
2023-04-16T04:09:36.637Z,32.0679
2023-04-16T04:10:40.530Z,32.0511
2023-04-16T04:11:44.693Z,32.0344
2023-04-16T04:12:48.568Z,32.0172
2023-04-16T04:13:52.465Z,32.0243
2023-04-16T04:14:56.349Z,32.0320
2023-04-16T04:16:00.260Z,32.1371
2023-04-16T04:17:04.143Z,32.2202
2023-04-16T04:18:08.044Z,32.3254
2023-04-16T04:19:12.338Z,32.4449
2023-04-16T04:20:16.243Z,32.5139
2023-04-16T04:21:20.153Z,32.5286
2023-04-16T04:22:24.067Z,32.7099
2023-04-16T04:23:27.948Z,33.0088
2023-04-16T04:24:28.291Z,33.2472
2023-04-16T04:25:32.172Z,33.3371
2023-04-16T04:26:36.132Z,33.3694
2023-04-16T04:27:39.971Z,33.4893
2023-04-16T04:28:43.847Z,33.6135
2023-04-16T04:29:47.958Z,33.7243
2023-04-16T04:30:51.845Z,33.7971
2023-04-16T04:31:55.993Z,33.8192
2023-04-16T04:32:59.945Z,33.9025
2023-04-16T04:34:04.128Z,33.8868
2023-04-16T04:35:08.013Z,33.9148
2023-04-16T04:36:11.891Z,33.9433
2023-04-16T04:37:15.791Z,34.0469
2023-04-16T04:38:19.675Z,34.0440
2023-04-16T04:39:23.555Z,34.0267
2023-04-16T04:40:27.478Z,34.0627
2023-04-16T04:41:31.585Z,34.1330
2023-04-16T04:42:35.479Z,34.1238
2023-04-16T04:43:39.391Z,34.2293
2023-04-16T04:44:43.301Z,34.2494
2023-04-16T04:45:47.300Z,34.2546
2023-04-16T04:46:51.459Z,34.3015
2023-04-16T04:47:55.391Z,34.2987
2023-04-16T04:48:59.502Z,34.3140
2023-04-16T04:50:03.449Z,34.3273
2023-04-16T04:51:07.333Z,34.2840
2023-04-16T04:52:11.243Z,34.3365
2023-04-16T04:53:15.200Z,34.3850
2023-04-16T04:54:19.060Z,34.4177
2023-04-16T04:55:22.968Z,34.3976
2023-04-16T04:56:26.907Z,34.3736
2023-04-16T04:57:30.809Z,34.4426
2023-04-16T04:58:34.922Z,34.4695
2023-04-16T04:59:38.812Z,34.5214
2023-04-16T05:00:42.691Z,34.5119
2023-04-16T05:01:46.881Z,34.4197
2023-04-16T05:02:50.906Z,34.4224
2023-04-16T05:03:55.139Z,34.4731
2023-04-16T05:04:59.044Z,34.5181
2023-04-16T05:06:02.930Z,34.5210
2023-04-16T05:07:06.827Z,34.5117
2023-04-16T05:08:10.710Z,34.5632
2023-04-16T05:09:14.600Z,34.5714
2023-04-16T05:10:18.482Z,34.5868
2023-04-16T05:11:22.589Z,34.6727
2023-04-16T05:12:26.480Z,34.7902
2023-04-16T05:13:30.367Z,34.8361
2023-04-16T05:14:34.257Z,34.7887
2023-04-16T05:15:38.131Z,34.7454
2023-04-16T05:16:42.019Z,34.7234
2023-04-16T05:17:45.909Z,34.6869
2023-04-16T05:18:49.838Z,34.6226
2023-04-16T05:19:53.756Z,34.5508
2023-04-16T05:20:57.619Z,34.4619
2023-04-16T05:22:01.493Z,34.5011
2023-04-16T05:23:05.405Z,34.5586
2023-04-16T05:24:09.706Z,34.4876
2023-04-16T05:25:13.591Z,34.4598
2023-04-16T05:26:17.688Z,34.4773
2023-04-16T05:27:21.561Z,34.3544
2023-04-16T05:28:25.458Z,34.4556
2023-04-16T05:29:29.341Z,34.4477
2023-04-16T05:30:33.266Z,34.3936
2023-04-16T05:31:37.334Z,34.4153
2023-04-16T05:32:41.267Z,34.3959
2023-04-16T05:33:45.421Z,34.4100
2023-04-16T05:34:49.291Z,34.4518
2023-04-16T05:35:53.204Z,34.4654
2023-04-16T05:36:57.105Z,34.3595
2023-04-16T05:38:01.007Z,34.3740
2023-04-16T05:39:05.148Z,34.3444
2023-04-16T05:40:09.031Z,34.3372
2023-04-16T05:41:12.929Z,34.3377
2023-04-16T05:42:16.848Z,34.3277
2023-04-16T05:43:20.736Z,34.3584
2023-04-16T05:44:24.661Z,34.3420
2023-04-16T05:45:28.545Z,34.2717
2023-04-16T05:46:32.771Z,34.3114
2023-04-16T05:47:36.738Z,34.3111
2023-04-16T05:48:40.813Z,34.3625
2023-04-16T05:49:44.858Z,34.2992
2023-04-16T05:50:48.729Z,34.2942
2023-04-16T05:51:52.635Z,34.3270
2023-04-16T05:52:56.537Z,34.2886
2023-04-16T05:54:00.679Z,34.2186
2023-04-16T05:55:04.602Z,34.2393
2023-04-16T05:56:08.725Z,34.2154
2023-04-16T05:57:12.624Z,34.2420
2023-04-16T05:58:16.496Z,34.2277
2023-04-16T05:59:20.385Z,34.1724
2023-04-16T06:00:24.280Z,34.1576
2023-04-16T06:01:28.425Z,34.1881
2023-04-16T06:02:32.427Z,34.1972
2023-04-16T06:03:36.720Z,34.1121
2023-04-16T06:04:40.634Z,34.1469
2023-04-16T06:05:44.571Z,34.1717
2023-04-16T06:06:48.423Z,34.1676
2023-04-16T06:07:52.323Z,34.1812
2023-04-16T06:08:56.207Z,34.1612
2023-04-16T06:10:00.110Z,34.1244
2023-04-16T06:11:04.232Z,34.1245
2023-04-16T06:12:08.158Z,34.1093
2023-04-16T06:13:12.054Z,34.1026
2023-04-16T06:14:16.165Z,34.1311
2023-04-16T06:15:20.069Z,34.1034
2023-04-16T06:16:24.015Z,34.0906
2023-04-16T06:17:27.915Z,34.1215
2023-04-16T06:18:32.030Z,34.0937
2023-04-16T06:19:35.916Z,34.1143
2023-04-16T06:20:39.824Z,34.0898
2023-04-16T06:21:43.730Z,34.0756
2023-04-16T06:22:47.603Z,34.0292
2023-04-16T06:23:51.853Z,34.0799
2023-04-16T06:24:55.746Z,34.0514
2023-04-16T06:25:59.624Z,34.0337
2023-04-16T06:27:03.664Z,33.9726
2023-04-16T06:28:07.563Z,33.9158
2023-04-16T06:29:11.765Z,33.9856
2023-04-16T06:30:15.724Z,34.0191
2023-04-16T06:31:19.879Z,34.0022
2023-04-16T06:32:23.816Z,33.9902
2023-04-16T06:33:27.725Z,34.0080
2023-04-16T06:34:31.623Z,33.9999
2023-04-16T06:35:35.509Z,34.0047
2023-04-16T06:36:39.408Z,33.9786
2023-04-16T06:37:43.306Z,33.8905
2023-04-16T06:38:47.178Z,33.9386
2023-04-16T06:39:51.053Z,33.9057
2023-04-16T06:40:55.158Z,33.7794
2023-04-16T06:41:59.055Z,33.7269
2023-04-16T06:43:02.935Z,33.6840
2023-04-16T06:44:06.830Z,33.6509
2023-04-16T06:45:10.699Z,33.6493
2023-04-16T06:46:14.828Z,33.6212
2023-04-16T06:47:18.766Z,33.5666
2023-04-16T06:48:22.910Z,33.6128
2023-04-16T06:49:26.814Z,33.6514
2023-04-16T06:50:30.696Z,33.6293
2023-04-16T06:51:34.587Z,33.7108
2023-04-16T06:52:38.490Z,33.8109
2023-04-16T06:53:42.616Z,33.7956
2023-04-16T06:54:46.506Z,33.8171
2023-04-16T06:55:50.390Z,33.8617
2023-04-16T06:56:54.308Z,33.8532
2023-04-16T06:57:58.198Z,33.8888
2023-04-16T06:59:02.344Z,33.8987
2023-04-16T07:00:06.249Z,33.9238
2023-04-16T07:01:10.405Z,33.9370
2023-04-16T07:02:14.380Z,33.9443
2023-04-16T07:03:18.518Z,33.9403
2023-04-16T07:04:22.491Z,33.9701
2023-04-16T07:05:26.377Z,33.9624
2023-04-16T07:06:30.286Z,33.9557
2023-04-16T07:07:34.184Z,33.9502
2023-04-16T07:08:38.418Z,33.9496
2023-04-16T07:09:42.301Z,33.9620
2023-04-16T07:10:46.415Z,33.9532
2023-04-16T07:11:50.322Z,33.9805
2023-04-16T07:12:54.209Z,33.9769
2023-04-16T07:13:58.120Z,33.9655
2023-04-16T07:15:01.986Z,33.9719
2023-04-16T07:16:05.910Z,33.9691
2023-04-16T07:17:09.778Z,33.9766
2023-04-16T07:18:13.958Z,34.0069
2023-04-16T07:19:17.998Z,34.0132
2023-04-16T07:20:21.895Z,33.9980
2023-04-16T07:21:25.793Z,33.9845
2023-04-16T07:22:29.696Z,33.9642
2023-04-16T07:23:33.633Z,33.9669
2023-04-16T07:24:37.513Z,33.9645
2023-04-16T07:25:41.481Z,33.9787
2023-04-16T07:26:45.384Z,33.9365
2023-04-16T07:27:49.273Z,33.9435
2023-04-16T07:28:53.182Z,33.9462
2023-04-16T07:29:57.084Z,33.9347
2023-04-16T07:31:00.974Z,33.8836
2023-04-16T07:32:04.990Z,33.8724
2023-04-16T07:33:09.050Z,33.8710
2023-04-16T07:34:12.913Z,33.8794
2023-04-16T07:35:16.823Z,33.8678
2023-04-16T07:36:20.712Z,33.8678
2023-04-16T07:37:24.615Z,33.8620
2023-04-16T07:38:28.754Z,33.8354
2023-04-16T07:39:32.688Z,33.8262
2023-04-16T07:40:36.704Z,33.8350
2023-04-16T07:41:40.591Z,33.8200
2023-04-16T07:42:44.452Z,33.8012
2023-04-16T07:43:48.334Z,33.7946
2023-04-16T07:44:52.240Z,33.7904
2023-04-16T07:45:56.490Z,33.7547
2023-04-16T07:47:00.464Z,33.7578
2023-04-16T07:48:04.774Z,33.7359
2023-04-16T07:49:08.876Z,33.7443
2023-04-16T07:50:12.863Z,33.7478
2023-04-16T07:51:16.759Z,33.7321
2023-04-16T07:52:20.668Z,33.7192
2023-04-16T07:53:24.555Z,33.6989
2023-04-16T07:54:29.175Z,33.6822
2023-04-16T07:55:33.108Z,33.6729
2023-04-16T07:56:37.052Z,33.6508
2023-04-16T07:57:40.917Z,33.6385
2023-04-16T07:58:44.834Z,33.6359
2023-04-16T07:59:48.705Z,33.6300
2023-04-16T08:00:52.815Z,33.6139
2023-04-16T08:01:56.727Z,33.6059
2023-04-16T08:03:00.883Z,33.6094
2023-04-16T08:04:04.995Z,33.6017
2023-04-16T08:05:08.959Z,33.5756
2023-04-16T08:06:12.838Z,33.5682
2023-04-16T08:07:16.753Z,33.5503
2023-04-16T08:08:16.915Z,33.5349
2023-04-16T08:09:20.803Z,33.5296
2023-04-16T08:10:24.899Z,33.5323
2023-04-16T08:11:28.816Z,33.5243
2023-04-16T08:12:32.715Z,33.4999
2023-04-16T08:13:36.614Z,33.4829
2023-04-16T08:14:40.482Z,33.4700
2023-04-16T08:15:44.634Z,33.4909
2023-04-16T08:16:48.533Z,33.4916
2023-04-16T08:17:52.756Z,33.4602
2023-04-16T08:18:56.609Z,33.4533
2023-04-16T08:20:00.506Z,33.4280
2023-04-16T08:21:04.392Z,33.4015
2023-04-16T08:22:08.316Z,33.3714
2023-04-16T08:23:12.195Z,33.3658
2023-04-16T08:24:16.127Z,33.3836
2023-04-16T08:25:20.000Z,33.3884
2023-04-16T08:26:24.002Z,33.3740
2023-04-16T08:27:27.901Z,33.3188
2023-04-16T08:28:32.024Z,33.4079
2023-04-16T08:29:35.935Z,33.4298
2023-04-16T08:30:39.841Z,33.4239
2023-04-16T08:31:43.775Z,33.4297
2023-04-16T08:32:50.045Z,33.4252
2023-04-16T08:33:48.852Z,33.4249
2023-04-16T08:34:52.753Z,33.4190
2023-04-16T08:35:56.991Z,33.4148
2023-04-16T08:37:00.994Z,33.4006
2023-04-16T08:38:04.912Z,33.3882
2023-04-16T08:39:08.913Z,33.3935
2023-04-16T08:40:13.083Z,33.3854
2023-04-16T08:41:17.218Z,33.3705
2023-04-16T08:42:21.131Z,33.3845
2023-04-16T08:43:25.013Z,33.3669
2023-04-16T08:44:28.939Z,33.3537
2023-04-16T08:45:33.118Z,33.3597
2023-04-16T08:46:37.024Z,33.3660
2023-04-16T08:47:40.911Z,33.3797
2023-04-16T08:48:44.787Z,33.3973
2023-04-16T08:49:48.721Z,33.4236
2023-04-16T08:50:52.580Z,33.4301
2023-04-16T08:51:54.080Z,33.4242
2023-04-16T08:52:58.213Z,33.4272
2023-04-16T08:54:02.310Z,33.4207
2023-04-16T08:55:06.221Z,33.4497
2023-04-16T08:56:10.104Z,33.4425
2023-04-16T08:57:13.987Z,33.4469
2023-04-16T08:58:18.202Z,33.4554
2023-04-16T08:59:22.089Z,33.4622
2023-04-16T09:00:26.218Z,33.4429
2023-04-16T09:01:30.145Z,33.4147
2023-04-16T09:02:34.134Z,33.4234
2023-04-16T09:03:38.345Z,33.4328
2023-04-16T09:04:42.383Z,33.4707
2023-04-16T09:05:46.280Z,33.4678
2023-04-16T09:06:50.163Z,33.4870
2023-04-16T09:07:54.059Z,33.4935
2023-04-16T09:08:57.953Z,33.4819
2023-04-16T09:10:01.914Z,33.4734
2023-04-16T09:11:05.814Z,33.4532
2023-04-16T09:12:09.700Z,33.4539
2023-04-16T09:13:13.596Z,33.4120
2023-04-16T09:14:17.482Z,33.4062
2023-04-16T09:15:21.598Z,33.4052
2023-04-16T09:16:25.534Z,33.4524
2023-04-16T09:17:29.497Z,33.4170
2023-04-16T09:18:33.372Z,33.3944
2023-04-16T09:19:37.270Z,33.4468
2023-04-16T09:20:41.320Z,33.4172
2023-04-16T09:21:45.207Z,33.4515
2023-04-16T09:22:49.104Z,33.5136
2023-04-16T09:23:52.984Z,33.4772
2023-04-16T09:24:56.885Z,33.4327
2023-04-16T09:26:00.962Z,33.4190
2023-04-16T09:27:04.862Z,33.4606
2023-04-16T09:28:09.016Z,33.4162
2023-04-16T09:29:12.887Z,33.3951
2023-04-16T09:30:16.793Z,33.4091
2023-04-16T09:31:21.013Z,33.4006
2023-04-16T09:32:24.911Z,33.4377
2023-04-16T09:33:28.808Z,33.3952
2023-04-16T09:34:32.703Z,33.3972
2023-04-16T09:35:36.849Z,33.4363
2023-04-16T09:36:40.737Z,33.4263
2023-04-16T09:37:44.875Z,33.3935
2023-04-16T09:38:48.751Z,33.4304
2023-04-16T09:39:52.655Z,33.4300
2023-04-16T09:40:56.723Z,33.4309
2023-04-16T09:42:00.613Z,33.5115
2023-04-16T09:43:05.018Z,33.4669
2023-04-16T09:44:08.918Z,33.4839
2023-04-16T09:45:12.791Z,33.4676
2023-04-16T09:46:16.704Z,33.4593
2023-04-16T09:47:20.598Z,33.4877
2023-04-16T09:48:24.476Z,33.4932
2023-04-16T09:49:28.407Z,33.5451
2023-04-16T09:50:32.315Z,33.5184
2023-04-16T09:51:36.220Z,33.4824
2023-04-16T09:52:40.341Z,33.5723
2023-04-16T09:53:44.220Z,33.5940
2023-04-16T09:54:48.116Z,33.5045
2023-04-16T09:55:52.248Z,33.5833
2023-04-16T09:56:56.161Z,33.5528
2023-04-16T09:58:00.084Z,33.5781
2023-04-16T09:59:04.006Z,33.5382
2023-04-16T10:00:07.926Z,33.5477
2023-04-16T10:01:12.006Z,33.6223
2023-04-16T10:02:16.560Z,33.5996
2023-04-16T10:03:20.657Z,33.5921
2023-04-16T10:04:24.572Z,33.5846
2023-04-16T10:05:28.525Z,33.5936
2023-04-16T10:06:32.407Z,33.6696
2023-04-16T10:07:36.528Z,33.6451
2023-04-16T10:08:40.408Z,33.6073
2023-04-16T10:09:44.272Z,33.6013
2023-04-16T10:10:48.153Z,33.5999
2023-04-16T10:11:52.051Z,33.5872
2023-04-16T10:12:56.188Z,33.6115
2023-04-16T10:14:00.172Z,33.6152
2023-04-16T10:15:04.311Z,33.6200
2023-04-16T10:16:08.201Z,33.6348
2023-04-16T10:17:12.117Z,33.6328
2023-04-16T10:18:16.008Z,33.6250
2023-04-16T10:19:19.929Z,33.6711
2023-04-16T10:20:23.823Z,33.6766
2023-04-16T10:21:27.740Z,33.6649
2023-04-16T10:22:31.614Z,33.6877
2023-04-16T10:23:35.508Z,33.6787
2023-04-16T10:24:39.417Z,33.6902
2023-04-16T10:25:43.545Z,33.6984
2023-04-16T10:26:47.428Z,33.7026
2023-04-16T10:27:51.560Z,33.7061
2023-04-16T10:28:55.456Z,33.7461
2023-04-16T10:29:59.342Z,33.7745
2023-04-16T10:31:03.281Z,33.7609
2023-04-16T10:32:07.159Z,33.7805
2023-04-16T10:33:11.093Z,33.7986
2023-04-16T10:34:14.964Z,33.8107
2023-04-16T10:35:18.870Z,33.8202
2023-04-16T10:36:22.779Z,33.8100
2023-04-16T10:37:26.976Z,33.8106
2023-04-16T10:38:30.880Z,33.8809
2023-04-16T10:39:34.805Z,33.9073
2023-04-16T10:40:38.725Z,33.8908
2023-04-16T10:41:42.628Z,33.9012
2023-04-16T10:42:46.535Z,33.9499
2023-04-16T10:43:50.450Z,33.9540
2023-04-16T10:44:54.342Z,33.9452
2023-04-16T10:45:58.482Z,34.0242
2023-04-16T10:47:02.418Z,34.0253
2023-04-16T10:48:06.350Z,34.0230
2023-04-16T10:49:10.319Z,34.0043
2023-04-16T10:50:14.545Z,33.9890
2023-04-16T10:51:18.466Z,34.0532
2023-04-16T10:52:22.393Z,34.1001
2023-04-16T10:53:26.269Z,34.1186
2023-04-16T10:54:30.143Z,34.0986
2023-04-16T10:55:34.025Z,34.0956
2023-04-16T10:56:37.908Z,34.1146
2023-04-16T10:57:41.787Z,34.1179
2023-04-16T10:58:45.673Z,34.1600
2023-04-16T10:59:49.902Z,34.1877
2023-04-16T11:00:53.810Z,34.2613
2023-04-16T11:01:57.798Z,34.2126
2023-04-16T11:03:01.768Z,34.2495
2023-04-16T11:04:05.793Z,34.2774
2023-04-16T11:05:09.755Z,34.2871
2023-04-16T11:06:13.676Z,34.3302
2023-04-16T11:07:17.568Z,34.4130
2023-04-16T11:08:21.440Z,34.3598
2023-04-16T11:09:25.347Z,34.3317
2023-04-16T11:10:29.459Z,34.4250
2023-04-16T11:11:33.375Z,34.3709
2023-04-16T11:12:37.399Z,34.3917
2023-04-16T11:13:43.133Z,34.4255
2023-04-16T11:14:42.124Z,34.4319
2023-04-16T11:15:46.274Z,34.4596
2023-04-16T11:16:50.159Z,34.5075
2023-04-16T11:17:54.152Z,34.4968
2023-04-16T11:18:58.027Z,34.4682
2023-04-16T11:20:02.136Z,34.5268
2023-04-16T11:21:06.042Z,34.5499
2023-04-16T11:22:09.960Z,34.5700
2023-04-16T11:23:10.310Z,34.5180
2023-04-16T11:24:14.254Z,34.5427
2023-04-16T11:25:18.135Z,34.5034
2023-04-16T11:26:22.016Z,34.5695
2023-04-16T11:27:25.915Z,34.6095
2023-04-16T11:28:29.801Z,34.6152
2023-04-16T11:29:33.689Z,34.6146
2023-04-16T11:30:37.584Z,34.6284
2023-04-16T11:31:41.495Z,34.6328
2023-04-16T11:32:45.419Z,34.6195
2023-04-16T11:33:49.276Z,34.6498
2023-04-16T11:34:53.387Z,34.6738
2023-04-16T11:35:57.279Z,34.6689
2023-04-16T11:37:01.169Z,34.6354
2023-04-16T11:38:05.317Z,34.6426
2023-04-16T11:39:09.323Z,34.6436
2023-04-16T11:40:13.624Z,34.6500
2023-04-16T11:41:17.480Z,34.6225
2023-04-16T11:42:21.613Z,34.6332
2023-04-16T11:43:25.504Z,34.6560
2023-04-16T11:44:29.386Z,34.6499
2023-04-16T11:45:33.282Z,34.6052
2023-04-16T11:46:37.196Z,34.6113
2023-04-16T11:47:41.123Z,34.6352
2023-04-16T11:48:45.045Z,34.6038
2023-04-16T11:49:48.953Z,34.6208
2023-04-16T11:50:52.826Z,34.6175
2023-04-16T11:51:56.742Z,34.6232
2023-04-16T11:53:00.829Z,34.6003
2023-04-16T11:54:04.733Z,34.5967
2023-04-16T11:55:08.845Z,34.5779
2023-04-16T11:56:12.743Z,34.6130
2023-04-16T11:57:16.652Z,34.5951
2023-04-16T11:58:20.541Z,34.5726
2023-04-16T11:59:21.384Z,34.5873
2023-04-16T12:00:25.270Z,34.6062
2023-04-16T12:01:29.178Z,34.6366
2023-04-16T12:02:33.148Z,34.6378
2023-04-16T12:03:37.339Z,34.6175
2023-04-16T12:04:41.485Z,34.6522
2023-04-16T12:05:45.387Z,34.6345
2023-04-16T12:06:49.293Z,34.6462
2023-04-16T12:07:53.478Z,34.6957
2023-04-16T12:08:57.366Z,34.7052
2023-04-16T12:10:01.276Z,34.7253
2023-04-16T12:11:05.174Z,34.6891
2023-04-16T12:12:09.319Z,34.6603
2023-04-16T12:13:13.218Z,34.6678
2023-04-16T12:14:17.121Z,34.6886
2023-04-16T12:15:21.249Z,34.6680
2023-04-16T12:16:25.157Z,34.6730
2023-04-16T12:17:29.084Z,34.6923
2023-04-16T12:18:32.935Z,34.6764
2023-04-16T12:19:36.842Z,34.6666
2023-04-16T12:20:40.723Z,34.6711
2023-04-16T12:21:44.604Z,34.7048
2023-04-16T12:22:48.751Z,34.7406
2023-04-16T12:23:52.627Z,34.7542
2023-04-16T12:24:56.757Z,34.7647
2023-04-16T12:26:00.646Z,34.8176
2023-04-16T12:27:04.552Z,34.8265
2023-04-16T12:28:08.421Z,34.8197
2023-04-16T12:29:12.313Z,34.8180
2023-04-16T12:30:16.432Z,34.8475
2023-04-16T12:31:20.420Z,34.8810
2023-04-16T12:32:24.349Z,34.9457
2023-04-16T12:33:28.298Z,34.9137
2023-04-16T12:34:46.765Z,34.8504
2023-04-16T12:35:36.929Z,34.8171
2023-04-16T12:36:40.827Z,34.7442
2023-04-16T12:37:44.956Z,34.6670
2023-04-16T12:38:48.862Z,34.6744
2023-04-16T12:39:53.001Z,34.7064
2023-04-16T12:40:57.332Z,34.8214
2023-04-16T12:42:01.334Z,34.7599
2023-04-16T12:43:05.518Z,34.7926
2023-04-16T12:44:09.392Z,34.7814
2023-04-16T12:45:13.278Z,34.7950
2023-04-16T12:46:17.208Z,34.8233
2023-04-16T12:47:21.108Z,34.8172
2023-04-16T12:48:24.964Z,34.8465
2023-04-16T12:49:28.861Z,34.9092
2023-04-16T12:50:32.751Z,34.9013
2023-04-16T12:51:36.646Z,34.8657
2023-04-16T12:52:40.537Z,34.8507